KAFK

Nebraska City Municipal Airport

Nebraska City, Nebraska, USA
METAR KAFK 190315Z AUTO 20007KT 10SM CLR M02/M04 A2994 RMK AO2 T10161045
Observed Flight Rules
Jan-19 @ 03:15 UTC (25 minutes ago) Visual Flight Rules
Wind Visibility Clouds
200° at 7 knots 10 miles
  • Clear skies
Temperatures Readings
Current -2°C / 28°F
Dewpoint -5°C / 23°F
Humidity 80%
Altimeter 29.94" Hg
Pressure 1014 hPa
Elevation 354
METAR KAFK 190315Z AUTO 20007KT 10SM CLR M02/M04 A2994 RMK AO2 T10161045
Observed Flight Rules
Jan-19 @ 03:15 UTC
(25 minutes ago)
VFR
Wind Visibility
200° at 7 knots 10 miles
Clouds
  • Clear skies
Temperature Dewpoint
-2°C / 28°F -5°C / 23°F
Humidity Altimeter Pressure
80% 29.94" Hg 1014 hPa